Base Naval de Natal Heliport

SDG8 · Rio Grande do Norte, 巴西

罗盘
风向 的 风向 220° 直升机
风: 4 kt, 2 beaufort
0 ft 2.000 4.000 6.000 8.000 10.000
Cloud Cloud Cloud Cloud Cloud Cloud
BKN 2.300
Cloud Cloud
FEW 3.000
Cloud Cloud Cloud Cloud
SCT 8.000
METAR SBNT 140500Z 22004KT 9000 -RA BKN023 FEW030TCU SCT080 24/23 Q1014 RERA

METAR Base Naval de Natal Heliport - SDG8

Base Naval de Natal Heliport是,巴西中的直升机场。 该机场位于纬度-5,79232和经度-35,22413。 这个机场没有ICAO代码,我们使用BR-1990作为参考。 该机场的本地机场标识(FAA LID)为SDG8。 机场在Recife FIR中。

该航空气象观测是针对Augusto Severo Airport在2024年6月14日 02:00, 当地时间进行的。

机场观察

风向为220°,速度为4 kt。

可见度为9 km。

有碎云在2.300 ft的高度, 几云 高耸的积云在3.000 ft的高度 和 疏云,零星散落的云朵在8.000 ft的高度。 破损或更高的上限为2.300 ft。

当前天气为光 雨。 温度和风寒是24 °C。 露点为23 °C,相对湿度为94%。 海平面上的气压为1014 hPa (QNH)。 最近是雨。

白天

今天,太阳从05:27升起,在17:15降落。 这适用于Base Naval de Natal Heliport,世界夏令时可能有所不同。 当地时间与世界标准时间之间的时差为-3 小时。 夏令时目前正在进行中。

公司介绍

我们没有关于这个机场的公司信息。

体会

到Vliegles.nl去找飞行课程,跳伞和其他飞行体验。 浏览页面,了解Base Naval de Natal Heliport附近所有可用的活动。 你也可以使用搜索功能来寻找你所在地附近的特定飞行课程、跳伞或其他飞行体验。

乌云

2.300 ft BKN 碎云
3.000 ft FEW 几云 高耸的积云
8.000 ft SCT 疏云,零星散落的云朵

温度 & 天气

天气 光 雨
最近的
温度 24 °C
露点 23 °C
相对湿度 94%
Kp-index 0 (0-9)

白天

日出
05:27 (3:14)
中午
11:21
日落
17:14

小工具

你想在你的网站上有一个关于Base Naval de Natal Heliport的当前航空天气(METAR)的小部件吗?

显示HTML代码
报告变更